createdAt,value
2023-02-02T00:00:42.117Z,7.80
2023-02-02T00:05:49.327Z,4.90
2023-02-02T00:10:52.052Z,9.87
2023-02-02T00:15:55.060Z,5.63
2023-02-02T00:20:59.221Z,4.03
2023-02-02T00:26:01.985Z,2.60
2023-02-02T00:31:04.908Z,4.87
2023-02-02T00:36:09.621Z,7.93
2023-02-02T00:41:12.341Z,6.47
2023-02-02T00:46:18.888Z,6.13
2023-02-02T00:51:23.325Z,4.77
2023-02-02T00:56:26.307Z,3.73
2023-02-02T01:01:29.377Z,5.87
2023-02-02T01:06:33.496Z,5.23
2023-02-02T01:11:37.865Z,7.53
2023-02-02T01:16:40.817Z,5.43
2023-02-02T01:21:45.931Z,6.40
2023-02-02T01:26:48.702Z,2.27
2023-02-02T01:31:51.651Z,4.60
2023-02-02T01:36:55.767Z,6.57
2023-02-02T01:41:58.594Z,7.23
2023-02-02T01:47:01.718Z,5.30
2023-02-02T01:52:06.889Z,4.33
2023-02-02T01:57:14.747Z,5.77
2023-02-02T02:02:17.654Z,5.80
2023-02-02T02:07:21.927Z,6.87
2023-02-02T02:12:26.484Z,5.67
2023-02-02T02:17:41.751Z,3.63
2023-02-02T02:23:19.743Z,4.57
2023-02-02T02:28:49.073Z,4.07
2023-02-02T02:33:58.645Z,6.20
2023-02-02T02:39:06.450Z,6.77
2023-02-02T02:44:12.744Z,3.67
2023-02-02T02:49:16.875Z,8.13
2023-02-02T02:54:23.835Z,5.83
2023-02-02T02:59:35.398Z,5.70
2023-02-02T03:04:45.193Z,5.83
2023-02-02T03:09:49.155Z,8.57
2023-02-02T03:14:51.874Z,8.33
2023-02-02T03:19:55.937Z,3.90
2023-02-02T03:24:59.576Z,6.57
2023-02-02T03:30:02.357Z,9.33
2023-02-02T03:35:07.369Z,4.37
2023-02-02T03:40:11.486Z,5.10
2023-02-02T03:45:14.287Z,6.60
2023-02-02T03:50:18.834Z,6.63
2023-02-02T03:55:21.841Z,6.50
2023-02-02T04:00:24.853Z,8.00
2023-02-02T04:05:29.082Z,3.20
2023-02-02T04:10:31.808Z,5.43
2023-02-02T04:15:34.706Z,9.50
2023-02-02T04:20:38.856Z,7.53
2023-02-02T04:25:50.123Z,5.93
2023-02-02T04:30:53.240Z,4.63
2023-02-02T04:35:57.414Z,6.37
2023-02-02T04:41:00.243Z,4.63
2023-02-02T04:46:06.866Z,2.93
2023-02-02T04:51:12.234Z,5.93
2023-02-02T04:56:16.461Z,5.97
2023-02-02T05:01:20.863Z,8.40
2023-02-02T05:06:25.202Z,6.13
2023-02-02T05:11:27.943Z,7.37
2023-02-02T05:16:30.899Z,4.90
2023-02-02T05:21:34.946Z,4.10
2023-02-02T05:26:37.758Z,6.70
2023-02-02T05:31:40.624Z,5.93
2023-02-02T05:36:44.724Z,8.83
2023-02-02T05:41:47.588Z,9.53
2023-02-02T05:46:50.303Z,6.97
2023-02-02T05:51:56.094Z,6.37
2023-02-02T05:57:01.139Z,10.40
2023-02-02T06:02:04.042Z,6.70
2023-02-02T06:07:08.380Z,8.43
2023-02-02T06:12:11.231Z,5.83
2023-02-02T06:17:13.966Z,8.30
2023-02-02T06:22:17.981Z,6.73
2023-02-02T06:27:20.836Z,8.30
2023-02-02T06:32:23.605Z,7.23
2023-02-02T06:37:30.576Z,4.20
2023-02-02T06:42:34.127Z,11.20
2023-02-02T06:47:36.845Z,8.10
2023-02-02T06:52:40.989Z,5.53
2023-02-02T06:57:43.712Z,6.47
2023-02-02T07:02:46.892Z,7.83
2023-02-02T07:07:51.480Z,8.40
2023-02-02T07:12:55.092Z,9.07
2023-02-02T07:17:57.866Z,7.63
2023-02-02T07:23:04.447Z,9.20
2023-02-02T07:28:07.373Z,9.07
2023-02-02T07:33:10.356Z,8.13
2023-02-02T07:38:14.431Z,9.40
2023-02-02T07:43:19.326Z,6.43
2023-02-02T07:48:22.219Z,7.87
2023-02-02T07:53:26.390Z,11.87
2023-02-02T07:58:29.114Z,5.80
2023-02-02T08:03:31.851Z,4.67
2023-02-02T08:08:35.935Z,3.70
2023-02-02T08:13:39.299Z,7.30
2023-02-02T08:18:42.263Z,11.57
2023-02-02T08:23:46.845Z,12.00
2023-02-02T08:28:52.694Z,6.73
2023-02-02T08:33:55.496Z,8.13
2023-02-02T08:39:03.376Z,6.97
2023-02-02T08:44:07.812Z,8.87
2023-02-02T08:49:14.464Z,6.27
2023-02-02T08:54:18.592Z,8.83
2023-02-02T08:59:21.338Z,7.13
2023-02-02T09:04:24.168Z,5.93
2023-02-02T09:09:28.254Z,8.77
2023-02-02T09:14:31.400Z,7.93
2023-02-02T09:19:34.104Z,5.97
2023-02-02T09:24:38.216Z,6.60
2023-02-02T09:29:41.194Z,7.40
2023-02-02T09:34:44.028Z,11.43
2023-02-02T09:39:48.351Z,8.33
2023-02-02T09:45:03.443Z,8.20
2023-02-02T09:50:19.223Z,6.47
2023-02-02T09:55:30.046Z,7.70
2023-02-02T10:00:35.919Z,6.87
2023-02-02T10:05:47.545Z,9.77
2023-02-02T10:10:52.200Z,9.87
2023-02-02T10:16:04.196Z,6.63
2023-02-02T10:21:09.937Z,8.17
2023-02-02T10:26:19.063Z,7.90
2023-02-02T10:31:30.724Z,9.13
2023-02-02T10:36:41.560Z,7.73
2023-02-02T10:41:52.839Z,11.63
2023-02-02T10:46:56.866Z,8.47
2023-02-02T10:52:05.281Z,11.43
2023-02-02T10:57:12.997Z,12.30
2023-02-02T11:02:21.065Z,5.00
2023-02-02T11:07:24.243Z,8.73
2023-02-02T11:12:32.339Z,7.30
2023-02-02T11:17:36.195Z,7.13
2023-02-02T11:22:39.640Z,7.73
2023-02-02T11:27:44.849Z,7.90
2023-02-02T11:32:49.480Z,7.73
2023-02-02T11:38:02.116Z,10.57
2023-02-02T11:43:15.248Z,7.53
2023-02-02T11:48:19.788Z,5.77
2023-02-02T11:53:28.077Z,12.37
2023-02-02T11:58:44.931Z,9.03
2023-02-02T12:03:48.990Z,11.10
2023-02-02T12:08:54.905Z,10.63
2023-02-02T12:14:11.995Z,6.03
2023-02-02T12:19:32.654Z,7.53
2023-02-02T12:24:36.894Z,7.40
2023-02-02T12:29:52.620Z,12.17
2023-02-02T12:35:13.294Z,7.30
2023-02-02T12:40:32.471Z,6.57
2023-02-02T12:45:47.998Z,8.17
2023-02-02T12:50:59.211Z,5.30
2023-02-02T12:56:08.233Z,5.47
2023-02-02T13:01:24.223Z,7.10
2023-02-02T13:06:52.381Z,6.55
2023-02-02T13:12:02.053Z,3.77
2023-02-02T13:17:11.881Z,5.03
2023-02-02T13:22:17.645Z,6.45
2023-02-02T13:27:21.478Z,7.90
2023-02-02T13:32:28.104Z,7.47
2023-02-02T13:37:37.241Z,4.63
2023-02-02T13:42:45.217Z,5.03
2023-02-02T13:47:54.105Z,5.15
2023-02-02T13:53:14.230Z,5.87
2023-02-02T13:58:37.636Z,10.07
2023-02-02T14:03:43.322Z,5.13
2023-02-02T14:08:49.250Z,8.13
2023-02-02T14:14:11.070Z,5.13
2023-02-02T14:19:22.343Z,5.37
2023-02-02T14:24:40.860Z,2.73
2023-02-02T14:30:00.032Z,4.37
2023-02-02T14:35:36.398Z,3.23
2023-02-02T14:40:49.872Z,4.20
2023-02-02T14:46:24.365Z,5.23
2023-02-02T14:51:30.167Z,3.10
2023-02-02T14:56:49.610Z,5.43
2023-02-02T15:02:02.650Z,4.97
2023-02-02T15:07:39.364Z,2.43
2023-02-02T15:12:45.851Z,3.20
2023-02-02T15:18:01.345Z,4.20
2023-02-02T15:23:07.182Z,5.53
2023-02-02T15:28:18.829Z,5.70
2023-02-02T15:33:27.329Z,4.53
2023-02-02T15:38:34.782Z,9.93
2023-02-02T15:43:39.697Z,6.43
2023-02-02T15:48:43.684Z,4.87
2023-02-02T15:53:49.272Z,4.70
2023-02-02T15:58:54.834Z,4.53
2023-02-02T16:04:02.924Z,2.03
2023-02-02T16:09:06.940Z,4.60
2023-02-02T16:14:17.685Z,5.73
2023-02-02T16:19:22.210Z,4.33
2023-02-02T16:24:27.092Z,2.33
2023-02-02T16:29:31.622Z,6.83
2023-02-02T16:34:47.548Z,7.60
2023-02-02T16:39:50.497Z,4.80
2023-02-02T16:44:55.501Z,3.40
2023-02-02T16:50:20.344Z,5.93
2023-02-02T16:55:24.076Z,4.53
2023-02-02T17:00:30.083Z,3.00
2023-02-02T17:05:34.011Z,6.13
2023-02-02T17:10:38.243Z,5.63
2023-02-02T17:15:42.451Z,3.87
2023-02-02T17:20:45.432Z,4.93
2023-02-02T17:25:48.790Z,1.73
2023-02-02T17:30:55.627Z,4.37
2023-02-02T17:35:58.447Z,4.93
2023-02-02T17:41:02.620Z,1.67
2023-02-02T17:46:06.889Z,3.57
2023-02-02T17:51:15.751Z,3.53
2023-02-02T17:56:18.980Z,3.33
2023-02-02T18:01:23.405Z,2.60
2023-02-02T18:06:26.260Z,1.70
2023-02-02T18:11:30.026Z,2.37
2023-02-02T18:16:34.297Z,2.77
2023-02-02T18:21:37.698Z,1.23
2023-02-02T18:26:40.595Z,4.47
2023-02-02T18:31:44.968Z,3.63
2023-02-02T18:36:47.788Z,4.70
2023-02-02T18:41:50.722Z,3.13
2023-02-02T18:46:54.853Z,1.67
2023-02-02T18:51:57.611Z,1.63
2023-02-02T18:57:00.465Z,1.83
2023-02-02T19:02:04.674Z,1.37
2023-02-02T19:07:25.311Z,3.03
2023-02-02T19:12:29.308Z,1.77
2023-02-02T19:17:33.992Z,2.90
2023-02-02T19:22:36.793Z,0.70
2023-02-02T19:27:39.845Z,1.97
2023-02-02T19:32:44.283Z,3.03
2023-02-02T19:37:48.426Z,2.40
2023-02-02T19:42:56.444Z,3.00
2023-02-02T19:48:02.450Z,3.10
2023-02-02T19:53:14.745Z,3.20
2023-02-02T19:58:20.508Z,3.97
2023-02-02T20:03:27.566Z,2.97
2023-02-02T20:08:34.396Z,3.03
2023-02-02T20:13:41.759Z,2.30
2023-02-02T20:18:50.755Z,3.57
2023-02-02T20:23:53.715Z,2.70
2023-02-02T20:28:57.988Z,3.17
2023-02-02T20:34:02.311Z,2.40
2023-02-02T20:39:22.066Z,3.57
2023-02-02T20:44:29.094Z,2.50
2023-02-02T20:49:33.429Z,1.83
2023-02-02T20:54:36.201Z,2.60
2023-02-02T20:59:38.940Z,2.10
2023-02-02T21:04:46.719Z,2.17
2023-02-02T21:09:50.985Z,3.03
2023-02-02T21:14:54.110Z,1.17
2023-02-02T21:19:58.355Z,4.33
2023-02-02T21:25:01.144Z,4.87
2023-02-02T21:30:04.425Z,5.70
2023-02-02T21:35:09.102Z,3.10
2023-02-02T21:40:14.416Z,3.13
2023-02-02T21:45:34.295Z,3.10
2023-02-02T21:50:42.051Z,2.73
2023-02-02T21:55:45.100Z,5.07
2023-02-02T22:00:48.492Z,3.20
2023-02-02T22:05:52.714Z,4.47
2023-02-02T22:10:55.476Z,5.07
2023-02-02T22:15:58.338Z,5.17
2023-02-02T22:21:02.431Z,2.40
2023-02-02T22:26:05.431Z,3.13
2023-02-02T22:31:08.257Z,4.27
2023-02-02T22:36:12.556Z,2.27
2023-02-02T22:41:15.640Z,2.57
2023-02-02T22:46:18.427Z,5.03
2023-02-02T22:51:22.566Z,2.47
2023-02-02T22:56:26.136Z,0.80
2023-02-02T23:01:28.940Z,3.70
2023-02-02T23:06:33.008Z,2.50
2023-02-02T23:11:35.774Z,0.70
2023-02-02T23:16:38.581Z,3.37
2023-02-02T23:21:42.838Z,2.63
2023-02-02T23:26:45.624Z,3.70
2023-02-02T23:31:48.443Z,4.00
2023-02-02T23:36:53.573Z,5.10
2023-02-02T23:41:56.402Z,5.50
2023-02-02T23:46:59.539Z,3.70
2023-02-02T23:52:03.898Z,2.50
2023-02-02T23:57:06.625Z,1.93
